Time;durP1;ratioP1;P1;durP2;ratioP2;P2;SDS_P1;SDS_P2;PMS_P1;PMS_P2;Temp;Humidity;BMP_temperature;BMP_pressure;BME280_temperature;BME280_humidity;BME280_pressure;Samples;Min_cycle;Max_cycle;Signal;HPM_P1;HPM_P2
2022/12/16 00:03:08;;;;;;;36.30;24.90;;;22.00;52.50;;;;;;212209;1297;22538;-44
2022/12/16 00:08:11;;;;;;;32.40;22.10;;;22.00;52.30;;;;;;212152;1302;24211;-44
2022/12/16 00:13:15;;;;;;;33.80;23.20;;;21.80;52.20;;;;;;211912;1303;275591;-44
2022/12/16 00:18:19;;;;;;;34.30;22.90;;;21.70;52.20;;;;;;212165;1303;25458;-44
2022/12/16 00:23:25;;;;;;;35.00;23.30;;;21.60;52.20;;;;;;211995;1302;24213;-47
2022/12/16 00:28:30;;;;;;;32.80;23.00;;;21.60;52.00;;;;;;211742;1316;25310;-45
2022/12/16 00:33:34;;;;;;;29.50;21.50;;;21.50;51.90;;;;;;211894;1316;22667;-44
2022/12/16 00:38:38;;;;;;;31.70;21.70;;;21.50;51.90;;;;;;212746;1303;22899;-44
2022/12/16 00:43:42;;;;;;;31.40;22.20;;;21.40;51.80;;;;;;211882;1318;23900;-44
2022/12/16 00:48:46;;;;;;;32.80;22.20;;;21.40;51.70;;;;;;212068;1303;22506;-45
2022/12/16 00:53:57;;;;;;;29.30;21.00;;;21.30;51.70;;;;;;211935;1313;22490;-44
2022/12/16 00:59:02;;;;;;;33.10;22.10;;;21.30;51.60;;;;;;212569;1299;22736;-45
2022/12/16 01:04:07;;;;;;;32.10;22.40;;;21.20;51.10;;;;;;212049;1316;22476;-44
2022/12/16 01:09:15;;;;;;;32.20;20.80;;;21.20;51.80;;;;;;211848;1296;25273;-44
2022/12/16 01:14:19;;;;;;;30.20;20.90;;;21.20;51.40;;;;;;211933;1315;23879;-47
2022/12/16 01:19:23;;;;;;;32.70;21.60;;;21.10;51.30;;;;;;211933;1305;24048;-42
2022/12/16 01:24:27;;;;;;;32.00;22.10;;;21.10;51.40;;;;;;212020;1302;22510;-44
2022/12/16 01:29:30;;;;;;;29.80;22.20;;;21.00;51.40;;;;;;212021;1310;23858;-44
2022/12/16 01:34:35;;;;;;;29.70;20.50;;;21.00;51.40;;;;;;212040;1312;22863;-44
2022/12/16 01:39:38;;;;;;;31.40;22.10;;;20.90;51.40;;;;;;212147;1296;22498;-44
2022/12/16 01:44:44;;;;;;;27.30;20.20;;;20.80;51.30;;;;;;212103;1310;22593;-44
2022/12/16 01:49:59;;;;;;;28.50;20.70;;;20.80;51.40;;;;;;211940;1302;25233;-44
2022/12/16 01:55:17;;;;;;;27.20;19.00;;;20.90;51.50;;;;;;211977;1298;24285;-44
2022/12/16 02:00:21;;;;;;;27.00;19.00;;;21.20;50.80;;;;;;211985;1305;24604;-45
2022/12/16 02:05:25;;;;;;;28.50;19.30;;;21.60;50.00;;;;;;211983;1306;24260;-42
2022/12/16 02:10:37;;;;;;;23.60;17.80;;;21.90;49.60;;;;;;212053;1317;25208;-44
2022/12/16 02:15:50;;;;;;;27.20;19.10;;;22.10;49.00;;;;;;212094;1314;24172;-45
2022/12/16 02:21:06;;;;;;;25.20;18.40;;;22.30;48.60;;;;;;212018;1303;24215;-45
2022/12/16 02:26:23;;;;;;;26.20;18.50;;;22.40;48.20;;;;;;211914;1296;22856;-46
2022/12/16 02:31:35;;;;;;;24.80;17.90;;;22.40;48.00;;;;;;212089;1311;22472;-47
2022/12/16 02:37:04;;;;;;;25.10;18.20;;;22.50;47.90;;;;;;212062;1297;24243;-44
2022/12/16 02:42:27;;;;;;;24.80;19.00;;;22.60;47.70;;;;;;212026;1318;24219;-44
2022/12/16 02:47:32;;;;;;;24.70;17.10;;;22.60;47.40;;;;;;212226;1300;22499;-44
2022/12/16 02:52:35;;;;;;;26.10;18.40;;;22.60;46.70;;;;;;211991;1312;22775;-45
2022/12/16 02:58:00;;;;;;;25.70;18.10;;;22.70;47.30;;;;;;212089;1310;24872;-44
2022/12/16 03:03:21;;;;;;;25.60;17.80;;;22.70;47.20;;;;;;212054;1315;22693;-47
2022/12/16 03:08:34;;;;;;;23.40;17.90;;;22.80;47.10;;;;;;211997;1312;25509;-44
2022/12/16 03:14:05;;;;;;;23.80;17.40;;;22.70;47.10;;;;;;212018;1292;24261;-46
2022/12/16 03:19:10;;;;;;;;;;;22.70;46.90;;;;;;212038;1316;25304;-45
2022/12/16 03:24:14;;;;;;;21.10;15.90;;;22.80;46.80;;;;;;212078;1299;22529;-46
2022/12/16 03:29:27;;;;;;;24.30;16.70;;;22.80;46.80;;;;;;212020;1317;26500;-44
2022/12/16 03:34:55;;;;;;;23.90;17.30;;;22.80;47.60;;;;;;211932;1296;22472;-44
2022/12/16 03:40:02;;;;;;;21.40;15.90;;;22.90;47.00;;;;;;212034;1309;24209;-44
2022/12/16 03:45:10;;;;;;;25.20;16.40;;;22.90;46.90;;;;;;212155;1314;22592;-45
2022/12/16 03:50:14;;;;;;;22.80;15.80;;;22.90;46.80;;;;;;212177;1311;25352;-47
2022/12/16 03:55:18;;;;;;;23.30;17.10;;;22.90;46.80;;;;;;212062;1296;24322;-45
2022/12/16 04:00:22;;;;;;;19.50;15.00;;;22.90;46.70;;;;;;212111;1310;23863;-49
2022/12/16 04:05:26;;;;;;;21.90;16.10;;;22.90;46.80;;;;;;212152;1306;22675;-47
2022/12/16 04:32:05;;;;;;;20.50;13.90;;;23.10;46.30;;;;;;211987;1317;25302;-43
